createdAt,value
2019-05-03T00:01:16.111Z,80.70
2019-05-03T00:03:51.868Z,80.90
2019-05-03T00:06:26.454Z,81.00
2019-05-03T00:09:01.563Z,80.90
2019-05-03T00:11:35.949Z,81.00
2019-05-03T00:14:12.327Z,80.90
2019-05-03T00:16:48.181Z,80.90
2019-05-03T00:19:22.601Z,80.60
2019-05-03T00:21:57.846Z,80.60
2019-05-03T00:24:32.463Z,80.30
2019-05-03T00:27:06.971Z,80.00
2019-05-03T00:29:42.287Z,79.80
2019-05-03T00:32:16.858Z,79.50
2019-05-03T00:34:52.750Z,79.30
2019-05-03T00:37:28.973Z,79.30
2019-05-03T00:40:08.713Z,79.10
2019-05-03T00:42:43.065Z,78.90
2019-05-03T00:45:17.466Z,78.80
2019-05-03T00:47:52.730Z,78.70
2019-05-03T00:50:27.449Z,78.30
2019-05-03T00:53:02.315Z,77.70
2019-05-03T00:55:36.870Z,77.40
2019-05-03T00:58:12.325Z,77.10
2019-05-03T01:00:47.219Z,76.90
2019-05-03T01:03:23.608Z,76.50
2019-05-03T01:05:59.778Z,76.10
2019-05-03T01:08:34.136Z,76.00
2019-05-03T01:11:08.794Z,75.70
2019-05-03T01:13:44.108Z,75.50
2019-05-03T01:16:22.497Z,75.00
2019-05-03T01:18:56.212Z,74.70
2019-05-03T01:21:31.720Z,74.30
2019-05-03T01:24:06.915Z,74.40
2019-05-03T01:26:42.898Z,74.00
2019-05-03T01:29:18.326Z,73.50
2019-05-03T01:31:52.931Z,73.30
2019-05-03T01:34:27.082Z,73.40
2019-05-03T01:37:02.630Z,73.40
2019-05-03T01:39:37.344Z,72.90
2019-05-03T01:42:12.083Z,72.80
2019-05-03T01:44:46.716Z,72.60
2019-05-03T01:47:29.712Z,72.40
2019-05-03T01:50:12.151Z,72.20
2019-05-03T01:52:47.242Z,72.10
2019-05-03T01:55:55.428Z,71.70
2019-05-03T01:58:29.954Z,71.70
2019-05-03T02:01:22.182Z,71.40
2019-05-03T02:04:06.621Z,71.00
2019-05-03T02:06:42.504Z,71.00
2019-05-03T02:09:17.057Z,70.70
2019-05-03T02:11:52.601Z,69.70
2019-05-03T02:14:27.475Z,69.70
2019-05-03T02:17:01.912Z,69.40
2019-05-03T02:19:36.612Z,69.00
2019-05-03T02:22:12.105Z,68.90
2019-05-03T02:24:48.398Z,68.60
2019-05-03T02:27:26.429Z,68.30
2019-05-03T02:30:03.561Z,67.70
2019-05-03T02:32:38.987Z,67.90
2019-05-03T02:35:15.615Z,67.10
2019-05-03T02:37:53.399Z,66.90
2019-05-03T02:40:28.285Z,66.50
2019-05-03T02:43:16.390Z,66.40
2019-05-03T02:46:07.448Z,66.90
2019-05-03T02:48:56.731Z,65.50
2019-05-03T02:51:31.476Z,65.00
2019-05-03T02:54:06.631Z,64.60
2019-05-03T02:56:47.919Z,64.60
2019-05-03T02:59:26.343Z,64.40
2019-05-03T03:02:00.703Z,63.90
2019-05-03T03:04:35.555Z,63.60
2019-05-03T03:07:11.317Z,62.90
2019-05-03T03:09:45.766Z,62.70
2019-05-03T03:12:20.100Z,62.60
2019-05-03T03:14:55.216Z,62.00
2019-05-03T03:17:30.153Z,61.40
2019-05-03T03:20:05.471Z,60.80
2019-05-03T03:22:42.001Z,60.50
2019-05-03T03:25:25.557Z,60.20
2019-05-03T03:28:01.230Z,60.00
2019-05-03T03:31:17.782Z,59.50
2019-05-03T03:33:52.565Z,58.80
2019-05-03T03:36:43.609Z,58.70
2019-05-03T03:39:06.095Z,58.80
2019-05-03T03:41:40.014Z,58.60
2019-05-03T03:44:15.333Z,58.50
2019-05-03T03:46:49.894Z,57.90
2019-05-03T03:49:26.242Z,58.70
2019-05-03T03:52:00.709Z,57.40
2019-05-03T03:54:36.148Z,57.10
2019-05-03T03:57:11.396Z,57.20
2019-05-03T03:59:46.852Z,57.30
2019-05-03T04:02:21.893Z,57.10
2019-05-03T04:04:56.166Z,57.10
2019-05-03T04:07:30.735Z,56.50
2019-05-03T04:10:05.712Z,56.20
2019-05-03T04:12:40.537Z,55.80
2019-05-03T04:15:37.306Z,55.70
2019-05-03T04:18:25.416Z,55.60
2019-05-03T04:20:58.844Z,56.20
2019-05-03T04:23:39.384Z,55.10
2019-05-03T04:26:16.302Z,54.80
2019-05-03T04:28:55.865Z,54.90
2019-05-03T04:31:33.062Z,54.90
2019-05-03T04:34:09.319Z,55.00
2019-05-03T04:36:46.224Z,54.70
2019-05-03T04:39:25.377Z,55.40
2019-05-03T04:42:03.339Z,54.50
2019-05-03T04:44:38.011Z,54.50
2019-05-03T04:47:15.724Z,54.20
2019-05-03T04:49:50.154Z,54.50
2019-05-03T04:52:28.563Z,54.40
2019-05-03T04:55:06.354Z,54.20
2019-05-03T04:57:45.481Z,53.70
2019-05-03T05:00:16.855Z,53.50
2019-05-03T05:02:51.407Z,53.40
2019-05-03T05:05:26.426Z,53.30
2019-05-03T05:08:01.272Z,52.60
2019-05-03T05:10:36.539Z,53.00
2019-05-03T05:13:11.039Z,53.00
2019-05-03T05:15:46.017Z,52.90
2019-05-03T05:18:35.223Z,52.40
2019-05-03T05:21:17.545Z,52.00
2019-05-03T05:24:18.941Z,52.00
2019-05-03T05:27:14.657Z,52.10
2019-05-03T05:29:49.123Z,52.00
2019-05-03T05:32:24.797Z,51.70
2019-05-03T05:35:00.525Z,51.10
2019-05-03T05:37:35.306Z,51.30
2019-05-03T05:40:09.693Z,50.90
2019-05-03T05:42:46.836Z,50.60
2019-05-03T05:45:21.644Z,50.60
2019-05-03T05:48:05.143Z,50.70
2019-05-03T05:50:44.774Z,50.60
2019-05-03T05:53:19.244Z,50.50
2019-05-03T05:56:17.186Z,50.40
2019-05-03T05:59:14.822Z,50.20
2019-05-03T06:02:04.718Z,50.10
2019-05-03T06:04:38.883Z,49.80
2019-05-03T06:07:31.456Z,49.10
2019-05-03T06:10:18.153Z,49.40
2019-05-03T06:13:11.096Z,49.30
2019-05-03T06:15:54.928Z,49.10
2019-05-03T06:19:04.558Z,48.50
2019-05-03T06:21:47.704Z,48.60
2019-05-03T06:24:28.394Z,48.20
2019-05-03T06:27:08.156Z,47.60
2019-05-03T06:29:45.394Z,47.30
2019-05-03T06:32:45.625Z,47.10
2019-05-03T06:35:20.366Z,46.60
2019-05-03T06:38:15.311Z,47.00
2019-05-03T06:40:50.862Z,46.30
2019-05-03T06:43:25.642Z,46.60
2019-05-03T06:46:02.351Z,46.60
2019-05-03T06:48:37.397Z,46.80
2019-05-03T06:51:17.240Z,47.20
2019-05-03T06:53:50.579Z,47.70
2019-05-03T06:56:29.093Z,47.60
2019-05-03T06:59:01.737Z,47.50
2019-05-03T07:01:44.831Z,46.80
2019-05-03T07:04:32.270Z,46.80
2019-05-03T07:07:29.169Z,46.60
2019-05-03T07:10:15.344Z,46.80
2019-05-03T07:13:05.008Z,46.90
2019-05-03T07:15:39.177Z,47.10
2019-05-03T07:18:15.584Z,47.60
2019-05-03T07:21:04.868Z,47.60
2019-05-03T07:23:41.674Z,47.50
2019-05-03T07:26:16.437Z,47.50
2019-05-03T07:28:50.908Z,47.60
2019-05-03T07:31:25.718Z,47.80
2019-05-03T07:34:00.935Z,47.40
2019-05-03T07:36:35.667Z,47.20
2019-05-03T07:39:11.746Z,47.30
2019-05-03T07:41:46.220Z,47.30
2019-05-03T07:44:25.425Z,47.40
2019-05-03T07:46:59.552Z,47.80
2019-05-03T07:49:35.653Z,48.00
2019-05-03T07:52:11.852Z,47.80
2019-05-03T07:54:46.608Z,48.00
2019-05-03T07:57:32.654Z,48.60
2019-05-03T08:00:08.261Z,48.70
2019-05-03T08:02:44.623Z,48.90
2019-05-03T08:05:18.468Z,49.00
2019-05-03T08:07:52.677Z,49.10
2019-05-03T08:10:29.170Z,49.40
2019-05-03T08:13:04.943Z,49.80
2019-05-03T08:15:50.774Z,50.10
2019-05-03T08:18:27.304Z,50.30
2019-05-03T08:21:05.147Z,51.20
2019-05-03T08:23:38.936Z,51.30
2019-05-03T08:26:15.103Z,51.70
2019-05-03T08:28:49.282Z,52.00
2019-05-03T08:31:47.779Z,52.20
2019-05-03T08:34:28.606Z,52.30
2019-05-03T08:37:07.874Z,52.50
2019-05-03T08:39:44.585Z,52.50
2019-05-03T08:42:26.823Z,52.60
2019-05-03T08:45:01.745Z,52.70
2019-05-03T08:47:36.131Z,53.10
2019-05-03T08:50:10.931Z,53.20
2019-05-03T08:52:45.428Z,53.40
2019-05-03T08:55:20.959Z,53.70
2019-05-03T08:57:55.375Z,53.90
2019-05-03T09:00:31.371Z,54.10
2019-05-03T09:03:05.946Z,54.30
2019-05-03T09:05:58.304Z,54.60
2019-05-03T09:08:34.830Z,54.60
2019-05-03T09:11:15.535Z,54.60
2019-05-03T09:13:59.177Z,54.80
2019-05-03T09:16:35.443Z,54.90
2019-05-03T09:19:11.009Z,55.00
2019-05-03T09:21:45.646Z,55.10
2019-05-03T09:24:20.485Z,55.50
2019-05-03T09:26:55.609Z,55.40
2019-05-03T09:29:40.250Z,55.50
2019-05-03T09:32:07.093Z,55.60
2019-05-03T09:34:44.514Z,55.70
2019-05-03T09:37:18.809Z,55.80
2019-05-03T09:39:55.050Z,55.80
2019-05-03T09:42:29.182Z,55.80
2019-05-03T09:45:04.928Z,56.00
2019-05-03T09:47:39.472Z,56.10
2019-05-03T09:50:15.676Z,56.00
2019-05-03T09:52:50.025Z,56.00
2019-05-03T09:55:29.761Z,55.90
2019-05-03T09:58:05.507Z,55.90
2019-05-03T10:00:40.624Z,56.10
2019-05-03T10:03:14.962Z,56.10
2019-05-03T10:05:59.777Z,56.20
2019-05-03T10:08:35.813Z,56.20
2019-05-03T10:11:15.623Z,55.90
2019-05-03T10:13:50.020Z,55.80
2019-05-03T10:16:25.571Z,55.70
2019-05-03T10:19:01.793Z,55.60
2019-05-03T10:21:38.067Z,55.60
2019-05-03T10:24:12.546Z,55.50
2019-05-03T10:26:46.797Z,55.50
2019-05-03T10:29:22.398Z,55.50
2019-05-03T10:32:08.071Z,55.60
2019-05-03T10:34:44.381Z,55.90
2019-05-03T10:37:32.711Z,56.00
2019-05-03T10:40:08.209Z,56.00
2019-05-03T10:42:44.503Z,56.10
2019-05-03T10:45:19.063Z,56.10
2019-05-03T10:47:54.422Z,55.90
2019-05-03T10:50:30.089Z,56.10
2019-05-03T10:53:09.279Z,56.10
2019-05-03T10:55:47.225Z,56.30
2019-05-03T10:58:21.732Z,56.70
2019-05-03T11:00:56.700Z,56.80
2019-05-03T11:03:32.070Z,57.00
2019-05-03T11:06:06.368Z,57.30
2019-05-03T11:08:41.791Z,58.00
2019-05-03T11:11:16.666Z,57.70
2019-05-03T11:13:51.075Z,57.80
2019-05-03T11:16:25.557Z,58.20
2019-05-03T11:19:00.315Z,58.50
2019-05-03T11:21:35.711Z,59.00
2019-05-03T11:24:09.858Z,59.00
2019-05-03T11:26:45.650Z,59.50
2019-05-03T11:29:20.222Z,59.60
2019-05-03T11:32:14.758Z,60.10
2019-05-03T11:35:07.369Z,60.40
2019-05-03T11:37:55.122Z,60.60
2019-05-03T11:40:29.617Z,60.70
2019-05-03T11:43:04.808Z,61.20
2019-05-03T11:45:40.852Z,61.10
2019-05-03T11:48:15.781Z,61.10
2019-05-03T11:50:50.313Z,62.10
2019-05-03T11:53:26.287Z,61.20
2019-05-03T11:56:00.599Z,61.40
2019-05-03T11:58:35.154Z,61.50
2019-05-03T12:01:20.574Z,61.70
2019-05-03T12:03:59.071Z,61.90
2019-05-03T12:06:33.636Z,62.30
2019-05-03T12:09:08.832Z,62.60
2019-05-03T12:11:43.581Z,62.60
2019-05-03T12:14:19.058Z,62.80
2019-05-03T12:17:16.540Z,63.10
2019-05-03T12:19:37.748Z,63.50
2019-05-03T12:22:11.816Z,63.80
2019-05-03T12:24:47.400Z,63.80
2019-05-03T12:27:24.415Z,64.00
2019-05-03T12:29:58.817Z,64.10
2019-05-03T12:32:34.529Z,64.30
2019-05-03T12:35:09.291Z,64.40
2019-05-03T12:37:44.047Z,64.50
2019-05-03T12:40:18.830Z,64.80
2019-05-03T12:42:55.284Z,65.10
2019-05-03T12:45:29.492Z,65.40
2019-05-03T12:48:04.959Z,66.60
2019-05-03T12:50:39.539Z,65.60
2019-05-03T12:53:15.156Z,65.70
2019-05-03T12:55:50.109Z,65.90
2019-05-03T12:58:26.289Z,66.30
2019-05-03T13:01:18.097Z,66.30
2019-05-03T13:04:06.489Z,66.40
2019-05-03T13:06:45.253Z,66.40
2019-05-03T13:09:19.125Z,66.50
2019-05-03T13:11:58.752Z,66.60
2019-05-03T13:14:30.990Z,66.50
2019-05-03T13:17:05.532Z,66.60
2019-05-03T13:19:40.127Z,66.60
2019-05-03T13:22:14.854Z,66.50
2019-05-03T13:24:54.455Z,66.60
2019-05-03T13:27:28.514Z,66.60
2019-05-03T13:30:05.178Z,66.60
2019-05-03T13:32:49.339Z,66.90
2019-05-03T13:35:25.890Z,66.70
2019-05-03T13:38:00.473Z,66.90
2019-05-03T13:40:35.898Z,66.90
2019-05-03T13:43:10.295Z,67.00
2019-05-03T13:45:45.858Z,66.90
2019-05-03T13:48:21.232Z,67.00
2019-05-03T13:50:56.243Z,67.00
2019-05-03T13:53:30.611Z,67.10
2019-05-03T13:56:05.071Z,67.10
2019-05-03T13:58:39.648Z,67.30
2019-05-03T14:01:14.707Z,67.30
2019-05-03T14:03:49.157Z,67.30
2019-05-03T14:06:25.770Z,67.20
2019-05-03T14:08:59.472Z,67.30
2019-05-03T14:11:35.362Z,67.10
2019-05-03T14:14:10.398Z,67.50
2019-05-03T14:16:45.322Z,67.50
2019-05-03T14:19:26.355Z,67.60
2019-05-03T14:22:02.043Z,67.60
2019-05-03T14:24:36.382Z,67.80
2019-05-03T14:27:10.753Z,67.70
2019-05-03T14:29:45.727Z,67.70
2019-05-03T14:32:26.708Z,67.90
2019-05-03T14:34:57.548Z,68.00
2019-05-03T14:37:31.824Z,68.10
2019-05-03T14:40:07.191Z,68.10
2019-05-03T14:42:41.494Z,68.30
2019-05-03T14:45:16.579Z,68.40
2019-05-03T14:47:51.199Z,68.20
2019-05-03T14:50:25.846Z,68.40
2019-05-03T14:53:05.382Z,69.40
2019-05-03T14:56:00.796Z,68.50
2019-05-03T14:58:52.143Z,68.50
2019-05-03T15:01:51.159Z,68.70
2019-05-03T15:04:26.301Z,68.70
2019-05-03T15:07:00.566Z,68.90
2019-05-03T15:09:37.074Z,69.00
2019-05-03T15:12:10.667Z,69.10
2019-05-03T15:14:45.150Z,69.10
2019-05-03T15:17:24.679Z,69.20
2019-05-03T15:19:59.068Z,69.30
2019-05-03T15:22:40.450Z,69.30
2019-05-03T15:25:15.075Z,69.30
2019-05-03T15:27:49.588Z,69.10
2019-05-03T15:30:25.460Z,69.10
2019-05-03T15:33:00.840Z,69.60
2019-05-03T15:35:35.665Z,69.20
2019-05-03T15:38:10.540Z,69.20
2019-05-03T15:40:46.465Z,69.10
2019-05-03T15:43:35.533Z,69.30
2019-05-03T15:46:44.718Z,69.40
2019-05-03T15:49:20.164Z,69.30
2019-05-03T15:51:56.148Z,69.30
2019-05-03T15:54:30.774Z,69.50
2019-05-03T15:57:05.532Z,69.60
2019-05-03T15:59:40.975Z,69.60
2019-05-03T16:02:15.477Z,69.50
2019-05-03T16:04:50.001Z,69.60
2019-05-03T16:07:25.045Z,69.60
2019-05-03T16:09:59.831Z,69.60
2019-05-03T16:12:34.475Z,69.70
2019-05-03T16:15:10.210Z,69.70
2019-05-03T16:17:44.922Z,69.70
2019-05-03T16:20:19.499Z,69.90
2019-05-03T16:22:54.486Z,70.00
2019-05-03T16:25:29.306Z,69.90
2019-05-03T16:28:31.367Z,70.00
2019-05-03T16:31:10.381Z,70.10
2019-05-03T16:33:45.644Z,70.10
2019-05-03T16:36:20.161Z,70.10
2019-05-03T16:38:55.435Z,70.00
2019-05-03T16:41:29.979Z,70.00
2019-05-03T16:44:04.177Z,70.10
2019-05-03T16:46:38.478Z,70.10
2019-05-03T16:49:13.083Z,70.20
2019-05-03T16:51:48.326Z,70.20
2019-05-03T16:54:25.461Z,70.30
2019-05-03T16:57:00.166Z,70.50
2019-05-03T16:59:35.259Z,70.60
2019-05-03T17:02:09.781Z,70.60
2019-05-03T17:04:49.361Z,70.70
2019-05-03T17:07:38.502Z,70.70
2019-05-03T17:10:19.974Z,70.80
2019-05-03T17:12:56.744Z,70.80
2019-05-03T17:15:30.801Z,70.80
2019-05-03T17:18:06.382Z,71.00
2019-05-03T17:20:40.786Z,71.20
2019-05-03T17:23:15.616Z,71.10
2019-05-03T17:25:50.044Z,71.20
2019-05-03T17:28:24.794Z,71.30
2019-05-03T17:30:59.442Z,71.50
2019-05-03T17:33:34.804Z,71.50
2019-05-03T17:36:10.117Z,71.70
2019-05-03T17:38:46.069Z,71.70
2019-05-03T17:41:37.479Z,71.80
2019-05-03T17:44:19.221Z,71.90
2019-05-03T17:46:54.857Z,72.00
2019-05-03T17:49:28.968Z,72.00
2019-05-03T17:52:21.888Z,72.30
2019-05-03T17:55:17.825Z,72.30
2019-05-03T17:58:04.592Z,72.50
2019-05-03T18:01:06.427Z,72.50
2019-05-03T18:03:44.909Z,72.60
2019-05-03T18:06:26.335Z,72.60
2019-05-03T18:09:27.666Z,72.70
2019-05-03T18:12:04.902Z,72.70
2019-05-03T18:14:39.489Z,72.70
2019-05-03T18:17:14.810Z,72.80
2019-05-03T18:19:49.386Z,72.80
2019-05-03T18:22:24.296Z,72.80
2019-05-03T18:24:58.759Z,72.90
2019-05-03T18:27:33.052Z,73.20
2019-05-03T18:30:08.154Z,73.40
2019-05-03T18:32:42.444Z,73.40
2019-05-03T18:35:17.753Z,73.60
2019-05-03T18:38:00.402Z,73.50
2019-05-03T18:40:35.532Z,73.70
2019-05-03T18:43:18.260Z,73.60
2019-05-03T18:46:08.506Z,73.70
2019-05-03T18:48:44.452Z,73.70
2019-05-03T18:51:19.083Z,73.70
2019-05-03T18:53:54.372Z,73.80
2019-05-03T18:56:29.107Z,73.80
2019-05-03T18:59:04.950Z,73.80
2019-05-03T19:01:40.539Z,73.90
2019-05-03T19:04:33.865Z,73.90
2019-05-03T19:07:04.384Z,74.00
2019-05-03T19:09:58.684Z,74.10
2019-05-03T19:13:07.670Z,74.20
2019-05-03T19:15:42.176Z,74.30
2019-05-03T19:18:40.957Z,74.10
2019-05-03T19:21:15.646Z,74.20
2019-05-03T19:23:49.927Z,74.30
2019-05-03T19:26:24.850Z,74.50
2019-05-03T19:28:59.725Z,74.50
2019-05-03T19:31:35.670Z,74.40
2019-05-03T19:34:10.140Z,74.80
2019-05-03T19:36:45.617Z,74.90
2019-05-03T19:39:20.582Z,74.90
2019-05-03T19:41:55.297Z,74.90
2019-05-03T19:44:29.818Z,75.00
2019-05-03T19:47:06.731Z,75.10
2019-05-03T19:49:40.973Z,75.30
2019-05-03T19:52:18.195Z,75.20
2019-05-03T19:54:52.855Z,75.20
2019-05-03T19:57:31.751Z,75.30
2019-05-03T20:00:07.153Z,75.50
2019-05-03T20:02:54.428Z,75.40
2019-05-03T20:05:45.311Z,75.40
2019-05-03T20:08:40.713Z,75.30
2019-05-03T20:11:18.672Z,75.50
2019-05-03T20:13:52.991Z,75.40
2019-05-03T20:16:27.400Z,75.50
2019-05-03T20:19:14.893Z,75.70
2019-05-03T20:21:38.466Z,75.70
2019-05-03T20:24:14.782Z,75.80
2019-05-03T20:26:49.010Z,75.90
2019-05-03T20:29:24.993Z,76.20
2019-05-03T20:31:58.921Z,76.20
2019-05-03T20:34:33.321Z,76.10
2019-05-03T20:37:07.757Z,76.30
2019-05-03T20:39:41.922Z,76.10
2019-05-03T20:42:35.731Z,76.20
2019-05-03T20:45:14.393Z,76.40
2019-05-03T20:47:54.723Z,76.40
2019-05-03T20:50:32.332Z,76.60
2019-05-03T20:53:06.639Z,76.60
2019-05-03T20:55:41.552Z,76.70
2019-05-03T20:58:16.175Z,76.90
2019-05-03T21:00:50.876Z,76.80
2019-05-03T21:03:25.735Z,76.50
2019-05-03T21:06:02.423Z,76.80
2019-05-03T21:08:48.924Z,77.00
2019-05-03T21:11:11.612Z,77.00
2019-05-03T21:13:46.062Z,76.90
2019-05-03T21:16:41.774Z,77.00
2019-05-03T21:19:24.774Z,77.10
2019-05-03T21:22:05.555Z,77.30
2019-05-03T21:24:45.436Z,77.30
2019-05-03T21:27:20.399Z,77.40
2019-05-03T21:29:55.465Z,77.50
2019-05-03T21:32:29.945Z,78.30
2019-05-03T21:35:05.377Z,77.50
2019-05-03T21:37:39.999Z,77.50
2019-05-03T21:40:15.611Z,77.60
2019-05-03T21:42:50.307Z,77.70
2019-05-03T21:45:30.839Z,77.70
2019-05-03T21:48:14.589Z,77.80
2019-05-03T21:50:53.009Z,77.80
2019-05-03T21:53:27.675Z,77.80
2019-05-03T21:56:05.055Z,77.80
2019-05-03T21:58:44.643Z,77.90
2019-05-03T22:01:19.644Z,77.80
2019-05-03T22:03:54.133Z,77.90
2019-05-03T22:06:28.641Z,78.00
2019-05-03T22:09:04.603Z,78.00
2019-05-03T22:11:39.374Z,77.90
2019-05-03T22:14:20.506Z,77.90
2019-05-03T22:17:19.297Z,77.90
2019-05-03T22:19:56.957Z,77.90
2019-05-03T22:22:37.477Z,77.90
2019-05-03T22:25:12.822Z,77.80
2019-05-03T22:27:47.393Z,77.90
2019-05-03T22:30:22.056Z,77.90
2019-05-03T22:32:57.229Z,78.00
2019-05-03T22:35:32.033Z,78.20
2019-05-03T22:38:06.618Z,78.30
2019-05-03T22:40:41.044Z,78.40
2019-05-03T22:43:15.638Z,78.40
2019-05-03T22:45:50.607Z,78.40
2019-05-03T22:48:25.208Z,78.50
2019-05-03T22:50:59.824Z,78.40
2019-05-03T22:53:35.302Z,78.50
2019-05-03T22:56:10.075Z,78.50
2019-05-03T22:58:45.711Z,78.70
2019-05-03T23:01:20.068Z,78.70
2019-05-03T23:03:55.088Z,78.80
2019-05-03T23:06:29.487Z,78.90
2019-05-03T23:09:05.086Z,78.80
2019-05-03T23:11:40.026Z,78.80
2019-05-03T23:14:15.048Z,79.00
2019-05-03T23:16:49.897Z,79.10
2019-05-03T23:19:24.770Z,79.40
2019-05-03T23:22:24.617Z,79.60
2019-05-03T23:24:59.974Z,79.80
2019-05-03T23:27:35.486Z,79.60
2019-05-03T23:30:11.191Z,79.80
2019-05-03T23:32:46.253Z,79.60
2019-05-03T23:35:20.608Z,79.80
2019-05-03T23:37:54.963Z,79.90
2019-05-03T23:40:29.264Z,80.00
2019-05-03T23:43:05.227Z,80.20
2019-05-03T23:45:40.979Z,80.10
2019-05-03T23:48:15.630Z,80.10
2019-05-03T23:50:50.371Z,80.10
2019-05-03T23:53:24.819Z,80.10
2019-05-03T23:56:04.492Z,80.00
2019-05-03T23:58:38.838Z,80.00
